createdAt,value
2018-09-13T00:00:30.960Z,0
2018-09-13T00:01:31.636Z,0
2018-09-13T00:02:32.313Z,0
2018-09-13T00:03:32.998Z,0
2018-09-13T00:04:33.705Z,0
2018-09-13T00:05:34.383Z,0
2018-09-13T00:06:35.102Z,0
2018-09-13T00:07:35.795Z,0
2018-09-13T00:08:36.495Z,0
2018-09-13T00:09:37.172Z,0
2018-09-13T00:10:37.846Z,0
2018-09-13T00:11:38.524Z,0
2018-09-13T00:12:39.199Z,0
2018-09-13T00:13:39.887Z,0
2018-09-13T00:14:40.550Z,0
2018-09-13T00:15:41.228Z,0
2018-09-13T00:16:41.944Z,0
2018-09-13T00:17:42.623Z,0
2018-09-13T00:18:43.298Z,0
2018-09-13T00:19:43.977Z,0
2018-09-13T00:20:44.649Z,0
2018-09-13T00:21:45.327Z,0
2018-09-13T00:22:46.044Z,0
2018-09-13T00:23:46.720Z,0
2018-09-13T00:24:47.440Z,0
2018-09-13T00:25:48.113Z,0
2018-09-13T00:26:48.790Z,0
2018-09-13T00:27:49.465Z,0
2018-09-13T00:28:50.140Z,0
2018-09-13T00:29:50.815Z,0
2018-09-13T00:30:51.492Z,0
2018-09-13T00:31:52.165Z,0
2018-09-13T00:32:52.845Z,0
2018-09-13T00:33:53.560Z,0
2018-09-13T00:34:54.234Z,0
2018-09-13T00:35:54.959Z,0
2018-09-13T00:36:55.635Z,0
2018-09-13T00:37:56.307Z,0
2018-09-13T00:38:56.981Z,0
2018-09-13T00:39:57.656Z,0
2018-09-13T00:40:58.329Z,0
2018-09-13T00:41:59.003Z,0
2018-09-13T00:42:59.677Z,0
2018-09-13T00:44:00.351Z,0
2018-09-13T00:45:01.026Z,0
2018-09-13T00:46:01.744Z,0
2018-09-13T00:47:02.420Z,0
2018-09-13T00:48:03.137Z,0
2018-09-13T00:49:03.811Z,0
2018-09-13T00:50:04.487Z,0
2018-09-13T00:51:05.161Z,0
2018-09-13T00:52:05.835Z,0
2018-09-13T00:53:06.508Z,0
2018-09-13T00:54:07.181Z,0
2018-09-13T00:55:07.872Z,0
2018-09-13T00:56:08.576Z,0
2018-09-13T00:57:09.252Z,0
2018-09-13T00:58:09.923Z,0
2018-09-13T00:59:10.598Z,0
2018-09-13T01:00:11.277Z,0
2018-09-13T01:01:11.948Z,0
2018-09-13T01:02:12.622Z,0
2018-09-13T01:03:13.296Z,0
2018-09-13T01:04:13.971Z,0
2018-09-13T01:05:14.648Z,0
2018-09-13T01:06:15.320Z,0
2018-09-13T01:07:16.040Z,0
2018-09-13T01:08:16.712Z,0
2018-09-13T01:09:17.387Z,0
2018-09-13T01:10:18.063Z,0
2018-09-13T01:11:18.737Z,0
2018-09-13T01:12:19.410Z,0
2018-09-13T01:13:20.084Z,0
2018-09-13T01:14:20.763Z,0
2018-09-13T01:15:21.435Z,0
2018-09-13T01:16:22.108Z,0
2018-09-13T01:17:22.782Z,0
2018-09-13T01:18:23.506Z,0
2018-09-13T01:19:24.180Z,0
2018-09-13T01:20:24.857Z,0
2018-09-13T01:21:25.573Z,0
2018-09-13T01:22:26.246Z,0
2018-09-13T01:23:26.926Z,0
2018-09-13T01:24:27.640Z,0
2018-09-13T01:25:28.315Z,0
2018-09-13T01:26:28.998Z,0
2018-09-13T01:27:29.675Z,0
2018-09-13T01:28:30.350Z,0
2018-09-13T01:29:31.023Z,0
2018-09-13T01:30:31.741Z,0
2018-09-13T01:31:32.415Z,0
2018-09-13T01:32:33.090Z,0
2018-09-13T01:33:33.765Z,0
2018-09-13T01:34:34.438Z,0
2018-09-13T01:35:35.113Z,0
2018-09-13T01:36:35.788Z,0
2018-09-13T01:37:36.461Z,0
2018-09-13T01:38:37.135Z,0
2018-09-13T01:39:37.809Z,0
2018-09-13T01:40:38.483Z,0
2018-09-13T01:41:39.159Z,0
2018-09-13T01:42:39.832Z,0
2018-09-13T01:43:40.506Z,0
2018-09-13T01:44:41.224Z,0
2018-09-13T01:45:41.900Z,0
2018-09-13T01:46:42.577Z,0
2018-09-13T01:47:43.248Z,0
2018-09-13T01:48:43.967Z,0
2018-09-13T01:49:44.641Z,0
2018-09-13T01:50:45.317Z,0
2018-09-13T01:51:45.991Z,0
2018-09-13T01:52:46.754Z,0
2018-09-13T01:53:47.434Z,0
2018-09-13T01:54:48.109Z,0
2018-09-13T01:55:48.782Z,0
2018-09-13T01:56:49.458Z,0
2018-09-13T01:57:50.148Z,0
2018-09-13T01:58:50.852Z,0
2018-09-13T01:59:51.543Z,0
2018-09-13T02:00:52.244Z,0
2018-09-13T02:01:52.918Z,0
2018-09-13T02:02:53.592Z,0
2018-09-13T02:03:54.265Z,0
2018-09-13T02:04:54.940Z,0
2018-09-13T02:05:55.633Z,0
2018-09-13T02:06:56.333Z,0
2018-09-13T02:07:57.050Z,0
2018-09-13T02:08:57.753Z,0
2018-09-13T02:09:58.443Z,0
2018-09-13T02:10:59.117Z,0
2018-09-13T02:11:59.789Z,0
2018-09-13T02:13:00.463Z,0
2018-09-13T02:14:01.189Z,0
2018-09-13T02:15:01.863Z,0
2018-09-13T02:16:02.538Z,0
2018-09-13T02:17:03.211Z,0
2018-09-13T02:18:03.932Z,0
2018-09-13T02:19:04.560Z,0
2018-09-13T02:20:05.234Z,0
2018-09-13T02:21:05.909Z,0
2018-09-13T02:22:06.581Z,0
2018-09-13T02:23:07.258Z,0
2018-09-13T02:24:07.931Z,0
2018-09-13T02:25:08.606Z,0
2018-09-13T02:26:09.280Z,0
2018-09-13T02:27:09.953Z,0
2018-09-13T02:28:10.673Z,0
2018-09-13T02:29:11.347Z,0
2018-09-13T02:30:12.022Z,0
2018-09-13T02:31:12.693Z,0
2018-09-13T02:32:13.366Z,0
2018-09-13T02:33:14.043Z,0
2018-09-13T02:34:14.716Z,0
2018-09-13T02:35:15.390Z,0
2018-09-13T02:36:16.065Z,0
2018-09-13T02:37:16.740Z,0
2018-09-13T02:38:17.414Z,0
2018-09-13T02:39:18.135Z,0
2018-09-13T02:40:18.808Z,0
2018-09-13T02:41:19.481Z,0
2018-09-13T02:42:20.158Z,0
2018-09-13T02:43:20.831Z,0
2018-09-13T02:44:21.506Z,0
2018-09-13T02:45:22.181Z,0
2018-09-13T02:46:22.897Z,0
2018-09-13T02:47:23.572Z,0
2018-09-13T02:48:24.245Z,0
2018-09-13T02:49:24.921Z,0
2018-09-13T02:50:25.636Z,0
2018-09-13T02:51:26.310Z,0
2018-09-13T02:52:26.986Z,0
2018-09-13T02:53:27.660Z,0
2018-09-13T02:54:28.344Z,0
2018-09-13T02:55:29.051Z,0
2018-09-13T02:56:29.730Z,0
2018-09-13T02:57:30.401Z,0
2018-09-13T02:58:31.075Z,0
2018-09-13T02:59:31.748Z,0
2018-09-13T03:00:32.465Z,0
2018-09-13T03:01:33.140Z,0
2018-09-13T03:02:33.813Z,0
2018-09-13T03:03:34.489Z,0
2018-09-13T03:04:35.161Z,0
2018-09-13T03:05:35.833Z,0
2018-09-13T03:06:36.508Z,0
2018-09-13T03:07:37.183Z,0
2018-09-13T03:08:37.856Z,0
2018-09-13T03:09:38.553Z,0
2018-09-13T03:10:39.249Z,0
2018-09-13T03:11:39.968Z,0
2018-09-13T03:12:40.643Z,0
2018-09-13T03:13:41.314Z,0
2018-09-13T03:14:42.006Z,0
2018-09-13T03:15:42.705Z,0
2018-09-13T03:16:43.380Z,0
2018-09-13T03:17:44.055Z,0
2018-09-13T03:18:44.728Z,0
2018-09-13T03:19:45.402Z,0
2018-09-13T03:20:46.080Z,0
2018-09-13T03:21:46.796Z,0
2018-09-13T03:22:47.536Z,0
2018-09-13T03:23:48.230Z,0
2018-09-13T03:24:48.928Z,0
2018-09-13T03:25:49.622Z,0
2018-09-13T03:26:50.299Z,0
2018-09-13T03:27:50.971Z,0
2018-09-13T03:28:51.645Z,0
2018-09-13T03:29:52.320Z,0
2018-09-13T03:30:52.995Z,0
2018-09-13T03:31:53.668Z,0
2018-09-13T03:32:54.343Z,0
2018-09-13T03:33:55.065Z,0
2018-09-13T03:34:55.740Z,0
2018-09-13T03:35:56.422Z,0
2018-09-13T03:36:57.132Z,0
2018-09-13T03:37:57.806Z,0
2018-09-13T03:38:58.479Z,0
2018-09-13T03:39:59.187Z,0
2018-09-13T03:40:59.872Z,0
2018-09-13T03:42:00.618Z,0
2018-09-13T03:43:01.219Z,0
2018-09-13T03:44:01.899Z,0
2018-09-13T03:45:02.630Z,0
2018-09-13T03:46:03.290Z,0
2018-09-13T03:47:04.006Z,0
2018-09-13T03:48:04.727Z,0
2018-09-13T03:49:05.399Z,0
2018-09-13T03:50:06.073Z,0
2018-09-13T03:51:06.748Z,0
2018-09-13T03:52:07.421Z,0
2018-09-13T03:53:08.097Z,0
2018-09-13T03:54:08.769Z,0
2018-09-13T03:55:09.448Z,0
2018-09-13T03:56:10.117Z,0
2018-09-13T03:57:10.800Z,0
2018-09-13T03:58:11.470Z,0
2018-09-13T03:59:12.141Z,0
2018-09-13T04:00:12.814Z,0
2018-09-13T04:01:13.488Z,0
2018-09-13T04:02:14.161Z,0
2018-09-13T04:03:14.851Z,0
2018-09-13T04:04:15.518Z,0
2018-09-13T04:05:16.184Z,0
2018-09-13T04:06:16.857Z,0
2018-09-13T04:07:17.531Z,0
2018-09-13T04:08:18.206Z,0
2018-09-13T04:09:18.904Z,0
2018-09-13T04:10:19.553Z,0
2018-09-13T04:11:20.230Z,0
2018-09-13T04:12:20.899Z,0
2018-09-13T04:13:21.579Z,0
2018-09-13T04:14:22.248Z,0
2018-09-13T04:15:22.922Z,0
2018-09-13T04:16:23.595Z,0
2018-09-13T04:17:24.267Z,0
2018-09-13T04:18:24.946Z,0
2018-09-13T04:19:25.667Z,0
2018-09-13T04:20:26.380Z,0
2018-09-13T04:21:27.052Z,0
2018-09-13T04:22:27.726Z,0
2018-09-13T04:23:28.400Z,0
2018-09-13T04:24:29.075Z,0
2018-09-13T04:25:29.749Z,0
2018-09-13T04:26:30.423Z,0
2018-09-13T04:27:31.096Z,0
2018-09-13T04:28:31.772Z,0
2018-09-13T04:29:32.445Z,0
2018-09-13T04:30:33.120Z,0
2018-09-13T04:31:33.792Z,0
2018-09-13T04:32:34.467Z,0
2018-09-13T04:33:35.143Z,0
2018-09-13T04:34:35.817Z,0
2018-09-13T04:35:36.539Z,0
2018-09-13T04:36:37.162Z,0
2018-09-13T04:37:37.836Z,0
2018-09-13T04:38:38.514Z,0
2018-09-13T04:39:39.232Z,0
2018-09-13T04:40:39.907Z,0
2018-09-13T04:41:40.581Z,0
2018-09-13T04:42:41.257Z,0
2018-09-13T04:43:41.933Z,0
2018-09-13T04:44:42.652Z,0
2018-09-13T04:45:43.326Z,0
2018-09-13T04:46:44.002Z,0
2018-09-13T04:47:44.678Z,0
2018-09-13T04:48:45.354Z,0
2018-09-13T04:49:46.072Z,0
2018-09-13T04:50:46.749Z,0
2018-09-13T04:51:47.422Z,0
2018-09-13T04:52:48.097Z,0
2018-09-13T04:53:48.770Z,0
2018-09-13T04:54:49.445Z,0
2018-09-13T04:55:50.122Z,0
2018-09-13T04:56:50.796Z,0
2018-09-13T04:57:51.472Z,0
2018-09-13T04:58:52.146Z,0
2018-09-13T04:59:52.822Z,0
2018-09-13T05:00:53.500Z,0
2018-09-13T05:01:54.175Z,0
2018-09-13T05:02:54.850Z,0
2018-09-13T05:03:55.528Z,5
2018-09-13T05:04:56.203Z,5
2018-09-13T05:05:56.882Z,5
2018-09-13T05:06:57.557Z,5
2018-09-13T05:07:58.235Z,5
2018-09-13T05:08:58.911Z,5
2018-09-13T05:09:59.587Z,5
2018-09-13T05:11:00.262Z,5
2018-09-13T05:12:00.939Z,5
2018-09-13T05:13:01.616Z,11
2018-09-13T05:14:02.293Z,11
2018-09-13T05:15:02.969Z,11
2018-09-13T05:16:03.649Z,11
2018-09-13T05:17:04.368Z,11
2018-09-13T05:18:05.045Z,16
2018-09-13T05:19:05.725Z,16
2018-09-13T05:20:06.430Z,16
2018-09-13T05:21:07.123Z,16
2018-09-13T05:22:07.800Z,16
2018-09-13T05:23:08.478Z,16
2018-09-13T05:24:09.156Z,16
2018-09-13T05:25:09.836Z,22
2018-09-13T05:26:10.558Z,22
2018-09-13T05:27:11.235Z,22
2018-09-13T05:28:11.914Z,22
2018-09-13T05:29:12.591Z,22
2018-09-13T05:30:13.268Z,16
2018-09-13T05:31:13.945Z,16
2018-09-13T05:32:14.639Z,22
2018-09-13T05:33:15.344Z,16
2018-09-13T05:34:16.022Z,22
2018-09-13T05:35:16.698Z,22
2018-09-13T05:36:17.376Z,22
2018-09-13T05:37:18.053Z,28
2018-09-13T05:38:18.731Z,28
2018-09-13T05:39:19.407Z,28
2018-09-13T05:40:20.085Z,28
2018-09-13T05:41:20.764Z,28
2018-09-13T05:42:21.442Z,28
2018-09-13T05:43:22.165Z,28
2018-09-13T05:44:22.840Z,28
2018-09-13T05:45:23.518Z,28
2018-09-13T05:46:24.195Z,28
2018-09-13T05:47:24.874Z,28
2018-09-13T05:48:25.552Z,28
2018-09-13T05:49:26.229Z,33
2018-09-13T05:50:26.908Z,33
2018-09-13T05:51:27.586Z,39
2018-09-13T05:52:28.266Z,39
2018-09-13T05:53:28.942Z,33
2018-09-13T05:54:29.618Z,33
2018-09-13T05:55:30.297Z,33
2018-09-13T05:56:31.178Z,33
2018-09-13T05:57:31.854Z,33
2018-09-13T05:58:32.532Z,33
2018-09-13T05:59:33.210Z,33
2018-09-13T06:00:33.933Z,33
2018-09-13T06:01:34.618Z,33
2018-09-13T06:02:35.292Z,39
2018-09-13T06:03:35.969Z,39
2018-09-13T06:04:36.646Z,33
2018-09-13T06:05:37.328Z,33
2018-09-13T06:06:38.050Z,33
2018-09-13T06:07:38.727Z,33
2018-09-13T06:08:39.406Z,33
2018-09-13T06:09:40.083Z,33
2018-09-13T06:10:40.762Z,33
2018-09-13T06:11:41.439Z,33
2018-09-13T06:12:42.116Z,28
2018-09-13T06:13:42.911Z,28
2018-09-13T06:14:43.476Z,28
2018-09-13T06:15:44.194Z,28
2018-09-13T06:16:44.871Z,28
2018-09-13T06:17:45.551Z,28
2018-09-13T06:18:46.227Z,28
2018-09-13T06:19:46.949Z,28
2018-09-13T06:20:47.583Z,33
2018-09-13T06:21:48.264Z,33
2018-09-13T06:22:48.940Z,33
2018-09-13T06:23:49.617Z,33
2018-09-13T06:24:50.296Z,33
2018-09-13T06:25:51.016Z,33
2018-09-13T06:26:51.695Z,33
2018-09-13T06:27:52.372Z,33
2018-09-13T06:28:53.049Z,33
2018-09-13T06:29:53.727Z,33
2018-09-13T06:30:54.405Z,33
2018-09-13T06:31:55.084Z,33
2018-09-13T06:32:55.762Z,33
2018-09-13T06:33:56.442Z,33
2018-09-13T06:34:57.120Z,39
2018-09-13T06:35:57.798Z,39
2018-09-13T06:36:58.477Z,39
2018-09-13T06:37:59.156Z,45
2018-09-13T06:38:59.837Z,45
2018-09-13T06:40:00.515Z,45
2018-09-13T06:41:01.194Z,45
2018-09-13T06:42:01.878Z,45
2018-09-13T06:43:02.556Z,45
2018-09-13T06:44:03.236Z,50
2018-09-13T06:45:03.916Z,50
2018-09-13T06:46:04.601Z,50
2018-09-13T06:47:05.275Z,50
2018-09-13T06:48:05.955Z,50
2018-09-13T06:49:06.633Z,50
2018-09-13T06:50:07.313Z,56
2018-09-13T06:51:07.990Z,50
2018-09-13T06:52:08.671Z,50
2018-09-13T06:53:09.350Z,50
2018-09-13T06:54:10.046Z,56
2018-09-13T06:55:10.708Z,56
2018-09-13T06:56:11.386Z,50
2018-09-13T06:57:12.065Z,50
2018-09-13T06:58:12.743Z,50
2018-09-13T06:59:13.423Z,50
2018-09-13T07:00:14.102Z,50
2018-09-13T07:01:14.786Z,45
2018-09-13T07:02:15.460Z,50
2018-09-13T07:03:16.139Z,56
2018-09-13T07:04:16.817Z,56
2018-09-13T07:05:17.497Z,61
2018-09-13T07:06:18.174Z,61
2018-09-13T07:07:18.860Z,67
2018-09-13T07:08:19.533Z,67
2018-09-13T07:09:20.212Z,67
2018-09-13T07:10:20.891Z,73
2018-09-13T07:11:21.571Z,73
2018-09-13T07:12:22.250Z,73
2018-09-13T07:13:22.928Z,73
2018-09-13T07:14:23.608Z,73
2018-09-13T07:15:24.334Z,73
2018-09-13T07:16:25.012Z,84
2018-09-13T07:17:25.691Z,90
2018-09-13T07:18:26.371Z,90
2018-09-13T07:19:27.051Z,101
2018-09-13T07:20:27.729Z,95
2018-09-13T07:21:28.454Z,95
2018-09-13T07:22:29.136Z,95
2018-09-13T07:23:29.831Z,101
2018-09-13T07:24:30.495Z,123
2018-09-13T07:25:31.219Z,123
2018-09-13T07:26:31.899Z,135
2018-09-13T07:27:32.587Z,135
2018-09-13T07:28:33.305Z,135
2018-09-13T07:29:33.985Z,135
2018-09-13T07:30:34.666Z,129
2018-09-13T07:31:35.390Z,118
2018-09-13T07:32:36.071Z,106
2018-09-13T07:33:36.839Z,95
2018-09-13T07:34:37.520Z,84
2018-09-13T07:35:38.201Z,78
2018-09-13T07:36:38.890Z,78
2018-09-13T07:37:39.558Z,78
2018-09-13T07:38:40.238Z,73
2018-09-13T07:39:40.969Z,73
2018-09-13T07:40:41.648Z,67
2018-09-13T07:41:42.327Z,67
2018-09-13T07:42:43.124Z,61
2018-09-13T07:43:43.688Z,56
2018-09-13T07:44:44.426Z,50
2018-09-13T07:45:45.044Z,50
2018-09-13T07:46:45.723Z,50
2018-09-13T07:47:46.401Z,50
2018-09-13T07:48:47.080Z,50
2018-09-13T07:49:47.853Z,50
2018-09-13T07:50:48.440Z,50
2018-09-13T07:51:49.118Z,50
2018-09-13T07:52:49.799Z,56
2018-09-13T07:53:50.479Z,56
2018-09-13T07:54:51.158Z,61
2018-09-13T07:55:51.906Z,67
2018-09-13T07:56:52.519Z,73
2018-09-13T07:57:53.197Z,78
2018-09-13T07:58:53.880Z,84
2018-09-13T07:59:54.558Z,101
2018-09-13T08:00:55.238Z,106
2018-09-13T08:01:55.919Z,101
2018-09-13T08:02:56.599Z,101
2018-09-13T08:03:57.282Z,101
2018-09-13T08:04:57.981Z,95
2018-09-13T08:05:58.683Z,90
2018-09-13T08:06:59.365Z,78
2018-09-13T08:08:00.042Z,78
2018-09-13T08:09:00.722Z,78
2018-09-13T08:10:01.402Z,78
2018-09-13T08:11:02.081Z,78
2018-09-13T08:12:02.846Z,84
2018-09-13T08:13:03.478Z,90
2018-09-13T08:14:04.161Z,101
2018-09-13T08:15:04.839Z,118
2018-09-13T08:16:05.519Z,123
2018-09-13T08:17:06.590Z,123
2018-09-13T08:18:06.880Z,129
2018-09-13T08:19:07.560Z,123
2018-09-13T08:20:08.286Z,106
2018-09-13T08:21:08.987Z,90
2018-09-13T08:22:09.709Z,78
2018-09-13T08:23:10.326Z,78
2018-09-13T08:24:11.008Z,78
2018-09-13T08:25:11.688Z,78
2018-09-13T08:26:12.414Z,84
2018-09-13T08:27:13.140Z,95
2018-09-13T08:28:13.772Z,106
2018-09-13T08:29:14.453Z,118
2018-09-13T08:30:15.136Z,118
2018-09-13T08:31:15.858Z,118
2018-09-13T08:32:16.539Z,112
2018-09-13T08:33:17.260Z,95
2018-09-13T08:34:17.944Z,90
2018-09-13T08:35:18.614Z,90
2018-09-13T08:36:19.296Z,90
2018-09-13T08:37:19.971Z,84
2018-09-13T08:38:20.651Z,84
2018-09-13T08:39:21.332Z,90
2018-09-13T08:40:22.021Z,84
2018-09-13T08:41:22.695Z,84
2018-09-13T08:42:23.371Z,84
2018-09-13T08:43:24.051Z,84
2018-09-13T08:44:24.740Z,78
2018-09-13T08:45:25.456Z,78
2018-09-13T08:46:26.134Z,78
2018-09-13T08:47:26.870Z,78
2018-09-13T08:48:27.531Z,78
2018-09-13T08:49:28.213Z,73
2018-09-13T08:50:28.894Z,73
2018-09-13T08:51:29.616Z,67
2018-09-13T08:52:30.296Z,67
2018-09-13T08:53:30.975Z,67
2018-09-13T08:54:31.655Z,67
2018-09-13T08:55:32.338Z,67
2018-09-13T08:56:33.014Z,67
2018-09-13T08:57:33.698Z,73
2018-09-13T08:58:34.418Z,73
2018-09-13T08:59:35.103Z,78
2018-09-13T09:00:35.805Z,73
2018-09-13T09:01:36.502Z,73
2018-09-13T09:02:37.182Z,73
2018-09-13T09:03:37.861Z,73
2018-09-13T09:04:38.546Z,73
2018-09-13T09:05:39.220Z,73
2018-09-13T09:06:39.899Z,78
2018-09-13T09:07:40.580Z,78
2018-09-13T09:08:41.260Z,84
2018-09-13T09:09:41.939Z,90
2018-09-13T09:10:42.622Z,101
2018-09-13T09:11:43.345Z,101
2018-09-13T09:12:43.982Z,106
2018-09-13T09:13:44.666Z,106
2018-09-13T09:14:45.346Z,101
2018-09-13T09:15:46.026Z,101
2018-09-13T09:16:46.707Z,95
2018-09-13T09:17:47.387Z,90
2018-09-13T09:18:48.067Z,84
2018-09-13T09:19:48.747Z,84
2018-09-13T09:20:49.428Z,78
2018-09-13T09:21:50.107Z,84
2018-09-13T09:22:50.789Z,90
2018-09-13T09:23:51.469Z,101
2018-09-13T09:24:52.149Z,101
2018-09-13T09:25:52.831Z,101
2018-09-13T09:26:53.513Z,95
2018-09-13T09:27:54.192Z,84
2018-09-13T09:28:54.882Z,84
2018-09-13T09:29:55.564Z,78
2018-09-13T09:30:56.232Z,78
2018-09-13T09:31:56.910Z,73
2018-09-13T09:32:57.614Z,73
2018-09-13T09:33:58.317Z,73
2018-09-13T09:34:59.108Z,73
2018-09-13T09:35:59.721Z,73
2018-09-13T09:37:00.449Z,73
2018-09-13T09:38:01.171Z,73
2018-09-13T09:39:01.850Z,73
2018-09-13T09:40:02.532Z,73
2018-09-13T09:41:03.210Z,73
2018-09-13T09:42:03.890Z,73
2018-09-13T09:43:04.571Z,73
2018-09-13T09:44:05.299Z,67
2018-09-13T09:45:05.930Z,67
2018-09-13T09:46:06.612Z,67
2018-09-13T09:47:07.295Z,67
2018-09-13T09:48:08.114Z,67
2018-09-13T09:49:08.698Z,67
2018-09-13T09:50:09.400Z,67
2018-09-13T09:51:10.076Z,73
2018-09-13T09:52:10.811Z,73
2018-09-13T09:53:11.501Z,73
2018-09-13T09:54:12.186Z,78
2018-09-13T09:55:12.863Z,84
2018-09-13T09:56:13.592Z,84
2018-09-13T09:57:14.223Z,84
2018-09-13T09:58:14.903Z,84
2018-09-13T09:59:15.583Z,84
2018-09-13T10:00:16.309Z,84
2018-09-13T10:01:17.031Z,84
2018-09-13T10:02:17.716Z,84
2018-09-13T10:03:18.529Z,84
2018-09-13T10:04:19.081Z,78
2018-09-13T10:05:19.814Z,78
2018-09-13T10:06:20.472Z,78
2018-09-13T10:07:21.158Z,78
2018-09-13T10:08:21.834Z,78
2018-09-13T10:09:22.512Z,78
2018-09-13T10:10:23.195Z,84
2018-09-13T10:11:23.875Z,84
2018-09-13T10:12:24.556Z,84
2018-09-13T10:13:25.233Z,84
2018-09-13T10:14:25.914Z,84
2018-09-13T10:15:26.602Z,84
2018-09-13T10:16:27.315Z,84
2018-09-13T10:17:28.001Z,84
2018-09-13T10:18:28.711Z,84
2018-09-13T10:19:29.399Z,84
2018-09-13T10:20:30.080Z,84
2018-09-13T10:21:30.760Z,90
2018-09-13T10:22:31.439Z,90
2018-09-13T10:23:32.161Z,90
2018-09-13T10:24:32.802Z,90
2018-09-13T10:25:33.479Z,90
2018-09-13T10:26:34.520Z,101
2018-09-13T10:27:34.841Z,101
2018-09-13T10:28:35.578Z,101
2018-09-13T10:29:36.256Z,95
2018-09-13T10:30:36.930Z,95
2018-09-13T10:31:37.866Z,95
2018-09-13T10:32:38.289Z,95
2018-09-13T10:33:38.976Z,95
2018-09-13T10:34:39.646Z,95
2018-09-13T10:35:40.328Z,90
2018-09-13T10:36:41.011Z,90
2018-09-13T10:37:41.687Z,90
2018-09-13T10:38:42.410Z,90
2018-09-13T10:39:43.116Z,90
2018-09-13T10:40:43.845Z,84
2018-09-13T10:41:44.497Z,84
2018-09-13T10:42:45.220Z,84
2018-09-13T10:43:45.903Z,90
2018-09-13T10:44:46.611Z,90
2018-09-13T10:45:47.305Z,90
2018-09-13T10:46:47.985Z,90
2018-09-13T10:47:56.487Z,90
2018-09-13T10:48:49.346Z,90
2018-09-13T10:49:50.025Z,84
2018-09-13T10:50:50.704Z,78
2018-09-13T10:51:51.389Z,78
2018-09-13T10:52:52.065Z,78
2018-09-13T10:53:52.746Z,78
2018-09-13T10:54:53.468Z,78
2018-09-13T10:55:54.179Z,78
2018-09-13T10:56:54.828Z,84
2018-09-13T10:57:55.509Z,90
2018-09-13T10:58:56.190Z,90
2018-09-13T10:59:56.870Z,90
2018-09-13T11:00:57.603Z,90
2018-09-13T11:01:58.233Z,90
2018-09-13T11:02:58.957Z,95
2018-09-13T11:03:59.645Z,95
2018-09-13T11:05:00.352Z,95
2018-09-13T11:06:01.032Z,90
2018-09-13T11:07:01.712Z,90
2018-09-13T11:08:02.393Z,84
2018-09-13T11:09:03.071Z,84
2018-09-13T11:10:03.752Z,84
2018-09-13T11:11:04.552Z,84
2018-09-13T11:12:05.112Z,78
2018-09-13T11:13:05.792Z,84
2018-09-13T11:14:06.472Z,84
2018-09-13T11:15:07.229Z,84
2018-09-13T11:16:07.923Z,84
2018-09-13T11:17:08.601Z,78
2018-09-13T11:18:09.282Z,78
2018-09-13T11:19:09.967Z,78
2018-09-13T11:20:10.688Z,78
2018-09-13T11:21:11.366Z,78
2018-09-13T11:22:12.046Z,84
2018-09-13T11:23:12.726Z,84
2018-09-13T11:24:13.405Z,78
2018-09-13T11:25:14.137Z,78
2018-09-13T11:26:14.816Z,78
2018-09-13T11:27:15.495Z,78
2018-09-13T11:28:16.175Z,84
2018-09-13T11:29:16.855Z,84
2018-09-13T11:30:17.584Z,90
2018-09-13T11:31:18.264Z,95
2018-09-13T11:32:18.957Z,101
2018-09-13T11:33:19.673Z,101
2018-09-13T11:34:20.357Z,101
2018-09-13T11:35:21.036Z,101
2018-09-13T11:36:21.722Z,101
2018-09-13T11:37:22.407Z,101
2018-09-13T11:38:23.124Z,106
2018-09-13T11:39:23.806Z,112
2018-09-13T11:40:24.578Z,112
2018-09-13T11:41:25.168Z,112
2018-09-13T11:42:25.850Z,118
2018-09-13T11:43:26.534Z,118
2018-09-13T11:44:27.212Z,123
2018-09-13T11:45:27.894Z,129
2018-09-13T11:46:28.575Z,123
2018-09-13T11:47:29.256Z,118
2018-09-13T11:48:29.939Z,112
2018-09-13T11:49:30.620Z,106
2018-09-13T11:50:31.304Z,101
2018-09-13T11:51:32.071Z,101
2018-09-13T11:52:32.753Z,106
2018-09-13T11:53:33.436Z,101
2018-09-13T11:54:34.114Z,95
2018-09-13T11:55:34.795Z,95
2018-09-13T11:56:35.478Z,95
2018-09-13T11:57:36.157Z,95
2018-09-13T11:58:36.866Z,95
2018-09-13T11:59:37.576Z,95
2018-09-13T12:00:38.293Z,101
2018-09-13T12:01:39.014Z,101
2018-09-13T12:02:39.697Z,101
2018-09-13T12:03:40.375Z,101
2018-09-13T12:04:41.058Z,95
2018-09-13T12:05:41.735Z,95
2018-09-13T12:06:42.417Z,90
2018-09-13T12:07:43.097Z,90
2018-09-13T12:08:43.777Z,90
2018-09-13T12:09:44.460Z,90
2018-09-13T12:10:45.141Z,90
2018-09-13T12:11:45.819Z,95
2018-09-13T12:12:46.501Z,95
2018-09-13T12:13:47.184Z,101
2018-09-13T12:14:47.864Z,106
2018-09-13T12:15:48.546Z,112
2018-09-13T12:16:49.227Z,118
2018-09-13T12:17:49.916Z,118
2018-09-13T12:18:50.591Z,112
2018-09-13T12:19:51.273Z,106
2018-09-13T12:20:51.953Z,112
2018-09-13T12:21:52.636Z,112
2018-09-13T12:22:53.319Z,112
2018-09-13T12:23:54.010Z,118
2018-09-13T12:24:54.725Z,118
2018-09-13T12:25:55.452Z,112
2018-09-13T12:26:56.131Z,112
2018-09-13T12:27:56.822Z,112
2018-09-13T12:28:57.540Z,123
2018-09-13T12:29:58.269Z,129
2018-09-13T12:30:58.947Z,123
2018-09-13T12:31:59.631Z,123
2018-09-13T12:33:00.314Z,112
2018-09-13T12:34:01.037Z,112
2018-09-13T12:35:01.769Z,112
2018-09-13T12:36:02.450Z,106
2018-09-13T12:37:03.138Z,106
2018-09-13T12:38:03.858Z,106
2018-09-13T12:39:04.540Z,101
2018-09-13T12:40:05.223Z,101
2018-09-13T12:41:05.906Z,95
2018-09-13T12:42:06.584Z,95
2018-09-13T12:43:07.265Z,90
2018-09-13T12:44:07.945Z,90
2018-09-13T12:45:08.651Z,84
2018-09-13T12:46:09.351Z,84
2018-09-13T12:47:10.031Z,84
2018-09-13T12:48:10.716Z,84
2018-09-13T12:49:11.394Z,84
2018-09-13T12:50:12.074Z,84
2018-09-13T12:51:12.759Z,78
2018-09-13T12:52:13.497Z,78
2018-09-13T12:53:14.119Z,78
2018-09-13T12:54:14.842Z,78
2018-09-13T12:55:15.524Z,78
2018-09-13T12:56:16.212Z,78
2018-09-13T12:57:16.884Z,73
2018-09-13T12:58:17.564Z,73
2018-09-13T12:59:18.244Z,73
2018-09-13T13:00:18.924Z,73
2018-09-13T13:01:19.604Z,73
2018-09-13T13:02:20.285Z,78
2018-09-13T13:03:20.964Z,78
2018-09-13T13:04:21.645Z,84
2018-09-13T13:05:22.329Z,84
2018-09-13T13:06:23.007Z,84
2018-09-13T13:07:23.687Z,84
2018-09-13T13:08:24.367Z,78
2018-09-13T13:09:25.047Z,73
2018-09-13T13:10:25.728Z,73
2018-09-13T13:11:26.452Z,67
2018-09-13T13:12:27.131Z,73
2018-09-13T13:13:27.813Z,78
2018-09-13T13:14:28.494Z,84
2018-09-13T13:15:29.218Z,84
2018-09-13T13:16:29.910Z,90
2018-09-13T13:17:30.617Z,95
2018-09-13T13:18:31.326Z,95
2018-09-13T13:19:32.104Z,95
2018-09-13T13:20:32.706Z,101
2018-09-13T13:21:33.430Z,101
2018-09-13T13:22:34.133Z,101
2018-09-13T13:23:34.859Z,101
2018-09-13T13:24:35.561Z,106
2018-09-13T13:25:36.242Z,106
2018-09-13T13:26:36.923Z,101
2018-09-13T13:27:37.690Z,95
2018-09-13T13:28:38.320Z,84
2018-09-13T13:29:39.004Z,84
2018-09-13T13:30:39.726Z,78
2018-09-13T13:31:40.407Z,73
2018-09-13T13:32:41.088Z,67
2018-09-13T13:33:41.767Z,61
2018-09-13T13:34:42.497Z,61
2018-09-13T13:35:43.179Z,61
2018-09-13T13:36:43.903Z,67
2018-09-13T13:37:44.584Z,67
2018-09-13T13:38:45.309Z,73
2018-09-13T13:39:45.990Z,78
2018-09-13T13:40:46.711Z,78
2018-09-13T13:41:47.353Z,84
2018-09-13T13:42:48.079Z,84
2018-09-13T13:43:48.761Z,84
2018-09-13T13:44:49.521Z,84
2018-09-13T13:45:50.229Z,84
2018-09-13T13:46:50.933Z,84
2018-09-13T13:47:51.614Z,90
2018-09-13T13:48:52.294Z,95
2018-09-13T13:49:53.025Z,101
2018-09-13T13:50:53.709Z,106
2018-09-13T13:51:54.386Z,101
2018-09-13T13:52:55.069Z,101
2018-09-13T13:53:55.747Z,95
2018-09-13T13:54:56.433Z,95
2018-09-13T13:55:57.152Z,95
2018-09-13T13:56:57.830Z,95
2018-09-13T13:57:58.511Z,90
2018-09-13T13:58:59.235Z,84
2018-09-13T13:59:59.977Z,84
2018-09-13T14:01:00.641Z,78
2018-09-13T14:02:01.360Z,78
2018-09-13T14:03:02.043Z,78
2018-09-13T14:04:02.723Z,78
2018-09-13T14:05:03.403Z,84
2018-09-13T14:06:04.085Z,78
2018-09-13T14:07:04.766Z,78
2018-09-13T14:08:05.445Z,78
2018-09-13T14:09:06.128Z,78
2018-09-13T14:10:06.919Z,78
2018-09-13T14:11:07.487Z,84
2018-09-13T14:12:08.211Z,84
2018-09-13T14:13:08.890Z,90
2018-09-13T14:14:09.572Z,90
2018-09-13T14:15:10.294Z,90
2018-09-13T14:16:10.980Z,90
2018-09-13T14:17:11.706Z,90
2018-09-13T14:18:12.376Z,95
2018-09-13T14:19:13.060Z,101
2018-09-13T14:20:13.746Z,112
2018-09-13T14:21:14.420Z,112
2018-09-13T14:22:15.122Z,112
2018-09-13T14:23:15.829Z,112
2018-09-13T14:24:16.510Z,118
2018-09-13T14:25:17.192Z,129
2018-09-13T14:26:17.872Z,129
2018-09-13T14:27:18.597Z,135
2018-09-13T14:28:19.279Z,135
2018-09-13T14:29:19.960Z,135
2018-09-13T14:30:20.643Z,129
2018-09-13T14:31:21.324Z,129
2018-09-13T14:32:22.005Z,129